Terminal Aerodrome Forecast
Issued by NWS Twin Cities, MN

Home | Current Version | Previous Version | Text Only | Print | Product List | Glossary On
Versions: 1 2 3 4 5 6 7 8 9 10 11 12 13 14 15 16 17 18 19 20 21
000
FTUS43 KMPX 161732
TAFSTC
TAF
KSTC 161732Z 1618/1718 VRB03KT P6SM SCT009 OVC012
     FM170000 00000KT 4SM BR SCT004 OVC006
     FM171500 00000KT P6SM BKN015=

USA.gov is the U.S. government's official web portal to all federal, state and local government web resources and services.